sensor_id;sensor_type;location;lat;lon;timestamp;pressure;altitude;pressure_sealevel;temperature;humidity
53868;BME280;41577;47.470;19.080;2023-10-08T00:00:03;100294.53;;;18.84;42.34
53868;BME280;41577;47.470;19.080;2023-10-08T00:00:22;100299.47;;;18.87;42.23
53868;BME280;41577;47.470;19.080;2023-10-08T00:00:34;100303.78;;;18.88;42.33
53868;BME280;41577;47.470;19.080;2023-10-08T00:00:47;100303.56;;;18.90;41.95
53868;BME280;41577;47.470;19.080;2023-10-08T00:01:03;100308.97;;;18.90;42.15
53868;BME280;41577;47.470;19.080;2023-10-08T00:01:15;100313.34;;;18.91;42.29
53868;BME280;41577;47.470;19.080;2023-10-08T00:01:30;100300.03;;;18.89;42.13
53868;BME280;41577;47.470;19.080;2023-10-08T00:01:42;100301.66;;;18.90;42.15
53868;BME280;41577;47.470;19.080;2023-10-08T00:01:54;100302.25;;;18.92;42.27
53868;BME280;41577;47.470;19.080;2023-10-08T00:02:06;100306.84;;;18.92;42.34
53868;BME280;41577;47.470;19.080;2023-10-08T00:02:18;100309.06;;;18.95;42.02
53868;BME280;41577;47.470;19.080;2023-10-08T00:02:30;100303.34;;;18.91;42.14
53868;BME280;41577;47.470;19.080;2023-10-08T00:02:42;100298.22;;;18.95;41.98
53868;BME280;41577;47.470;19.080;2023-10-08T00:02:54;100297.19;;;18.96;42.14
53868;BME280;41577;47.470;19.080;2023-10-08T00:03:06;100309.63;;;18.97;42.25
53868;BME280;41577;47.470;19.080;2023-10-08T00:03:19;100305.88;;;18.98;41.83
53868;BME280;41577;47.470;19.080;2023-10-08T00:03:31;100294.94;;;18.93;42.12
53868;BME280;41577;47.470;19.080;2023-10-08T00:03:43;100298.50;;;18.93;41.82
53868;BME280;41577;47.470;19.080;2023-10-08T00:03:56;100297.78;;;18.98;41.92
53868;BME280;41577;47.470;19.080;2023-10-08T00:04:09;100296.38;;;18.95;42.35
53868;BME280;41577;47.470;19.080;2023-10-08T00:04:22;100286.81;;;18.93;42.06
53868;BME280;41577;47.470;19.080;2023-10-08T00:04:34;100299.63;;;18.97;42.27
53868;BME280;41577;47.470;19.080;2023-10-08T00:04:46;100302.09;;;18.99;41.98
53868;BME280;41577;47.470;19.080;2023-10-08T00:04:58;100299.63;;;18.97;41.81
53868;BME280;41577;47.470;19.080;2023-10-08T00:05:10;100301.28;;;18.98;42.18
53868;BME280;41577;47.470;19.080;2023-10-08T00:05:22;100295.88;;;18.98;41.96
53868;BME280;41577;47.470;19.080;2023-10-08T00:05:35;100291.50;;;18.97;41.90
53868;BME280;41577;47.470;19.080;2023-10-08T00:05:48;100296.69;;;18.99;42.10
53868;BME280;41577;47.470;19.080;2023-10-08T00:06:03;100296.91;;;18.97;42.24
53868;BME280;41577;47.470;19.080;2023-10-08T00:06:15;100294.72;;;18.94;42.10
53868;BME280;41577;47.470;19.080;2023-10-08T00:06:27;100296.09;;;18.97;41.78
53868;BME280;41577;47.470;19.080;2023-10-08T00:06:39;100305.38;;;19.01;42.10
53868;BME280;41577;47.470;19.080;2023-10-08T00:06:51;100294.22;;;18.97;42.03
53868;BME280;41577;47.470;19.080;2023-10-08T00:07:03;100296.69;;;18.99;42.11
53868;BME280;41577;47.470;19.080;2023-10-08T00:07:15;100298.59;;;18.98;41.87
53868;BME280;41577;47.470;19.080;2023-10-08T00:07:27;100298.59;;;18.98;41.98
53868;BME280;41577;47.470;19.080;2023-10-08T00:07:38;100298.81;;;18.97;42.27
53868;BME280;41577;47.470;19.080;2023-10-08T00:07:50;100304.81;;;18.99;42.11
53868;BME280;41577;47.470;19.080;2023-10-08T00:08:03;100292.59;;;18.96;41.88
53868;BME280;41577;47.470;19.080;2023-10-08T00:08:15;100292.00;;;18.94;42.10
53868;BME280;41577;47.470;19.080;2023-10-08T00:08:27;100298.00;;;18.96;42.25
53868;BME280;41577;47.470;19.080;2023-10-08T00:08:39;100300.72;;;18.96;41.88
53868;BME280;41577;47.470;19.080;2023-10-08T00:08:51;100295.28;;;18.96;41.93
53868;BME280;41577;47.470;19.080;2023-10-08T00:09:03;100289.31;;;18.94;41.83
53868;BME280;41577;47.470;19.080;2023-10-08T00:09:15;100293.41;;;18.97;41.90
53868;BME280;41577;47.470;19.080;2023-10-08T00:09:27;100293.97;;;18.99;42.11
53868;BME280;41577;47.470;19.080;2023-10-08T00:09:39;100290.97;;;18.95;41.94
53868;BME280;41577;47.470;19.080;2023-10-08T00:09:51;100295.88;;;18.98;41.77
53868;BME280;41577;47.470;19.080;2023-10-08T00:10:04;100289.31;;;18.94;41.88
53868;BME280;41577;47.470;19.080;2023-10-08T00:10:16;100294.22;;;18.97;41.80
53868;BME280;41577;47.470;19.080;2023-10-08T00:10:28;100288.81;;;18.97;41.99
53868;BME280;41577;47.470;19.080;2023-10-08T00:10:40;100292.00;;;18.94;41.83
53868;BME280;41577;47.470;19.080;2023-10-08T00:10:52;100293.66;;;18.95;41.86
53868;BME280;41577;47.470;19.080;2023-10-08T00:11:04;100295.06;;;18.98;41.73
53868;BME280;41577;47.470;19.080;2023-10-08T00:11:16;100293.41;;;18.97;41.83
53868;BME280;41577;47.470;19.080;2023-10-08T00:11:28;100292.00;;;18.94;41.81
53868;BME280;41577;47.470;19.080;2023-10-08T00:11:40;100288.50;;;18.94;41.63
53868;BME280;41577;47.470;19.080;2023-10-08T00:11:53;100294.47;;;18.96;41.57
53868;BME280;41577;47.470;19.080;2023-10-08T00:12:05;100287.41;;;18.95;41.95
53868;BME280;41577;47.470;19.080;2023-10-08T00:12:17;100289.06;;;18.96;42.00
53868;BME280;41577;47.470;19.080;2023-10-08T00:12:29;100290.13;;;18.95;41.61
53868;BME280;41577;47.470;19.080;2023-10-08T00:12:41;100292.59;;;18.96;41.88
53868;BME280;41577;47.470;19.080;2023-10-08T00:12:53;100281.41;;;18.93;41.68
53868;BME280;41577;47.470;19.080;2023-10-08T00:13:05;100286.59;;;18.94;41.75
53868;BME280;41577;47.470;19.080;2023-10-08T00:13:17;100293.66;;;18.95;41.66
53868;BME280;41577;47.470;19.080;2023-10-08T00:13:29;100287.69;;;18.93;41.69
53868;BME280;41577;47.470;19.080;2023-10-08T00:13:41;100287.41;;;18.95;41.80
53868;BME280;41577;47.470;19.080;2023-10-08T00:14:14;100280.28;;;18.89;41.52
53868;BME280;41577;47.470;19.080;2023-10-08T00:14:26;100286.81;;;18.93;41.69
53868;BME280;41577;47.470;19.080;2023-10-08T00:14:38;100282.25;;;18.93;41.55
53868;BME280;41577;47.470;19.080;2023-10-08T00:14:50;100286.81;;;18.93;41.65
53868;BME280;41577;47.470;19.080;2023-10-08T00:15:03;100284.97;;;18.93;41.56
53868;BME280;41577;47.470;19.080;2023-10-08T00:15:15;100284.38;;;18.91;41.69
53868;BME280;41577;47.470;19.080;2023-10-08T00:15:27;100287.69;;;18.93;41.40
53868;BME280;41577;47.470;19.080;2023-10-08T00:15:42;100288.72;;;18.92;41.45
53868;BME280;41577;47.470;19.080;2023-10-08T00:15:54;100286.81;;;18.93;41.59
53868;BME280;41577;47.470;19.080;2023-10-08T00:16:06;100286.81;;;18.93;41.63
53868;BME280;41577;47.470;19.080;2023-10-08T00:16:18;100285.19;;;18.92;41.67
53868;BME280;41577;47.470;19.080;2023-10-08T00:16:30;100293.09;;;18.93;41.60
53868;BME280;41577;47.470;19.080;2023-10-08T00:16:42;100294.94;;;18.93;41.58
53868;BME280;41577;47.470;19.080;2023-10-08T00:16:54;100289.53;;;18.93;41.42
53868;BME280;41577;47.470;19.080;2023-10-08T00:17:07;100287.41;;;18.95;41.37
53868;BME280;41577;47.470;19.080;2023-10-08T00:17:19;100287.69;;;18.93;41.23
53868;BME280;41577;47.470;19.080;2023-10-08T00:17:31;100293.91;;;18.94;41.27
53868;BME280;41577;47.470;19.080;2023-10-08T00:17:43;100284.97;;;18.93;41.21
53868;BME280;41577;47.470;19.080;2023-10-08T00:17:55;100295.78;;;18.93;41.47
53868;BME280;41577;47.470;19.080;2023-10-08T00:18:07;100286.81;;;18.93;41.35
53868;BME280;41577;47.470;19.080;2023-10-08T00:18:20;100288.72;;;18.92;41.28
53868;BME280;41577;47.470;19.080;2023-10-08T00:18:32;100280.03;;;18.90;41.41
53868;BME280;41577;47.470;19.080;2023-10-08T00:18:45;100285.19;;;18.92;41.66
53868;BME280;41577;47.470;19.080;2023-10-08T00:18:57;100286.81;;;18.93;41.36
53868;BME280;41577;47.470;19.080;2023-10-08T00:19:11;100285.19;;;18.92;41.57
53868;BME280;41577;47.470;19.080;2023-10-08T00:19:23;100283.31;;;18.92;41.43
53868;BME280;41577;47.470;19.080;2023-10-08T00:19:35;100287.09;;;18.91;41.55
53868;BME280;41577;47.470;19.080;2023-10-08T00:19:47;100288.72;;;18.92;41.70
53868;BME280;41577;47.470;19.080;2023-10-08T00:20:01;100282.72;;;18.90;41.78
53868;BME280;41577;47.470;19.080;2023-10-08T00:20:13;100277.31;;;18.90;41.47
53868;BME280;41577;47.470;19.080;2023-10-08T00:20:25;100279.22;;;18.90;41.57
53868;BME280;41577;47.470;19.080;2023-10-08T00:20:37;100279.22;;;18.90;41.48
53868;BME280;41577;47.470;19.080;2023-10-08T00:20:50;100278.41;;;18.89;41.44
53868;BME280;41577;47.470;19.080;2023-10-08T00:21:02;100284.63;;;18.90;41.61
53868;BME280;41577;47.470;19.080;2023-10-08T00:21:14;100283.00;;;18.89;41.42
53868;BME280;41577;47.470;19.080;2023-10-08T00:21:26;100282.72;;;18.90;41.65
53868;BME280;41577;47.470;19.080;2023-10-08T00:21:39;100279.44;;;18.88;41.43
53868;BME280;41577;47.470;19.080;2023-10-08T00:21:52;100280.03;;;18.90;41.35
53868;BME280;41577;47.470;19.080;2023-10-08T00:22:03;100279.22;;;18.90;41.51
53868;BME280;41577;47.470;19.080;2023-10-08T00:22:15;100279.44;;;18.88;41.58
53868;BME280;41577;47.470;19.080;2023-10-08T00:22:27;100278.63;;;18.88;41.78
53868;BME280;41577;47.470;19.080;2023-10-08T00:22:39;100279.22;;;18.90;41.36
53868;BME280;41577;47.470;19.080;2023-10-08T00:22:51;100281.09;;;18.89;41.41
53868;BME280;41577;47.470;19.080;2023-10-08T00:23:03;100275.69;;;18.89;41.22
53868;BME280;41577;47.470;19.080;2023-10-08T00:23:15;100275.69;;;18.89;41.58
53868;BME280;41577;47.470;19.080;2023-10-08T00:23:27;100266.75;;;18.89;41.56
53868;BME280;41577;47.470;19.080;2023-10-08T00:23:39;100272.97;;;18.89;41.48
53868;BME280;41577;47.470;19.080;2023-10-08T00:23:51;100269.69;;;18.87;41.71
53868;BME280;41577;47.470;19.080;2023-10-08T00:24:04;100278.63;;;18.88;41.57
53868;BME280;41577;47.470;19.080;2023-10-08T00:24:16;100270.28;;;18.89;41.54
53868;BME280;41577;47.470;19.080;2023-10-08T00:24:34;100271.31;;;18.88;41.48
53868;BME280;41577;47.470;19.080;2023-10-08T00:24:54;100271.31;;;18.88;41.35
53868;BME280;41577;47.470;19.080;2023-10-08T00:25:06;100274.03;;;18.88;41.42
53868;BME280;41577;47.470;19.080;2023-10-08T00:25:19;100274.03;;;18.88;41.52
53868;BME280;41577;47.470;19.080;2023-10-08T00:25:31;100271.31;;;18.88;41.44
53868;BME280;41577;47.470;19.080;2023-10-08T00:25:43;100265.09;;;18.88;41.63
53868;BME280;41577;47.470;19.080;2023-10-08T00:25:55;100274.03;;;18.88;41.31
53868;BME280;41577;47.470;19.080;2023-10-08T00:26:07;100264.28;;;18.87;41.60
53868;BME280;41577;47.470;19.080;2023-10-08T00:26:20;100264.28;;;18.87;41.40
53868;BME280;41577;47.470;19.080;2023-10-08T00:26:33;100268.06;;;18.86;41.52
53868;BME280;41577;47.470;19.080;2023-10-08T00:26:45;100272.41;;;18.87;41.59
53868;BME280;41577;47.470;19.080;2023-10-08T00:26:57;100269.94;;;18.86;41.50
53868;BME280;41577;47.470;19.080;2023-10-08T00:27:09;100266.19;;;18.87;41.52
53868;BME280;41577;47.470;19.080;2023-10-08T00:27:21;100268.06;;;18.86;41.32
53868;BME280;41577;47.470;19.080;2023-10-08T00:27:33;100266.19;;;18.87;41.60
53868;BME280;41577;47.470;19.080;2023-10-08T00:27:45;100268.06;;;18.86;41.63
53868;BME280;41577;47.470;19.080;2023-10-08T00:27:57;100268.06;;;18.86;41.50
53868;BME280;41577;47.470;19.080;2023-10-08T00:28:09;100271.59;;;18.87;41.73
53868;BME280;41577;47.470;19.080;2023-10-08T00:28:22;100273.47;;;18.86;41.57
53868;BME280;41577;47.470;19.080;2023-10-08T00:28:34;100264.53;;;18.86;41.45
53868;BME280;41577;47.470;19.080;2023-10-08T00:28:46;100275.34;;;18.86;41.74
53868;BME280;41577;47.470;19.080;2023-10-08T00:29:00;100271.59;;;18.87;41.63
53868;BME280;41577;47.470;19.080;2023-10-08T00:29:12;100278.06;;;18.86;41.76
53868;BME280;41577;47.470;19.080;2023-10-08T00:29:25;100280.75;;;18.86;41.47
53868;BME280;41577;47.470;19.080;2023-10-08T00:29:37;100275.34;;;18.86;41.45
53868;BME280;41577;47.470;19.080;2023-10-08T00:29:49;100274.53;;;18.85;41.87
53868;BME280;41577;47.470;19.080;2023-10-08T00:30:01;100280.75;;;18.86;41.54
53868;BME280;41577;47.470;19.080;2023-10-08T00:30:13;100275.34;;;18.86;41.74
53868;BME280;41577;47.470;19.080;2023-10-08T00:30:25;100269.34;;;18.84;41.62
53868;BME280;41577;47.470;19.080;2023-10-08T00:30:39;100279.94;;;18.85;41.90
53868;BME280;41577;47.470;19.080;2023-10-08T00:30:51;100285.34;;;18.85;41.67
53868;BME280;41577;47.470;19.080;2023-10-08T00:31:03;100282.66;;;18.85;41.58
53868;BME280;41577;47.470;19.080;2023-10-08T00:31:15;100278.06;;;18.86;41.50
53868;BME280;41577;47.470;19.080;2023-10-08T00:31:27;100282.66;;;18.85;41.74
53868;BME280;41577;47.470;19.080;2023-10-08T00:31:39;100273.72;;;18.85;41.78
53868;BME280;41577;47.470;19.080;2023-10-08T00:31:51;100277.47;;;18.84;41.86
53868;BME280;41577;47.470;19.080;2023-10-08T00:32:03;100277.47;;;18.84;42.01
53868;BME280;41577;47.470;19.080;2023-10-08T00:32:16;100282.06;;;18.83;41.71
53868;BME280;41577;47.470;19.080;2023-10-08T00:32:28;100283.72;;;18.84;41.61
53868;BME280;41577;47.470;19.080;2023-10-08T00:32:40;100275.59;;;18.84;41.84
53868;BME280;41577;47.470;19.080;2023-10-08T00:32:52;100277.16;;;18.80;41.71
53868;BME280;41577;47.470;19.080;2023-10-08T00:33:04;100283.72;;;18.84;41.68
53868;BME280;41577;47.470;19.080;2023-10-08T00:33:16;100279.59;;;18.81;41.80
53868;BME280;41577;47.470;19.080;2023-10-08T00:33:29;100275.84;;;18.83;41.85
53868;BME280;41577;47.470;19.080;2023-10-08T00:33:40;100282.06;;;18.83;42.09
53868;BME280;41577;47.470;19.080;2023-10-08T00:33:53;100279.38;;;18.83;41.91
53868;BME280;41577;47.470;19.080;2023-10-08T00:34:05;100277.72;;;18.82;41.65
53868;BME280;41577;47.470;19.080;2023-10-08T00:34:19;100279.38;;;18.83;41.86
53868;BME280;41577;47.470;19.080;2023-10-08T00:34:32;100278.53;;;18.83;42.15
53868;BME280;41577;47.470;19.080;2023-10-08T00:34:44;100283.16;;;18.82;41.94
53868;BME280;41577;47.470;19.080;2023-10-08T00:34:56;100284.78;;;18.83;41.94
53868;BME280;41577;47.470;19.080;2023-10-08T00:35:09;100279.59;;;18.81;41.90
53868;BME280;41577;47.470;19.080;2023-10-08T00:35:21;100283.38;;;18.80;41.81
53868;BME280;41577;47.470;19.080;2023-10-08T00:35:37;100279.38;;;18.83;41.73
53868;BME280;41577;47.470;19.080;2023-10-08T00:35:49;100275.03;;;18.82;41.73
53868;BME280;41577;47.470;19.080;2023-10-08T00:36:01;100282.31;;;18.81;41.55
53868;BME280;41577;47.470;19.080;2023-10-08T00:36:13;100282.31;;;18.81;41.66
53868;BME280;41577;47.470;19.080;2023-10-08T00:36:25;100285.84;;;18.82;41.82
53868;BME280;41577;47.470;19.080;2023-10-08T00:36:37;100284.19;;;18.81;41.88
53868;BME280;41577;47.470;19.080;2023-10-08T00:36:49;100283.38;;;18.80;41.74
53868;BME280;41577;47.470;19.080;2023-10-08T00:37:01;100280.09;;;18.78;41.84
53868;BME280;41577;47.470;19.080;2023-10-08T00:37:13;100284.19;;;18.81;41.68
53868;BME280;41577;47.470;19.080;2023-10-08T00:37:25;100281.47;;;18.81;41.86
53868;BME280;41577;47.470;19.080;2023-10-08T00:37:37;100277.97;;;18.80;41.87
53868;BME280;41577;47.470;19.080;2023-10-08T00:37:49;100278.19;;;18.79;41.71
53868;BME280;41577;47.470;19.080;2023-10-08T00:38:01;100282.56;;;18.80;41.57
53868;BME280;41577;47.470;19.080;2023-10-08T00:38:14;100279.84;;;18.80;41.67
53868;BME280;41577;47.470;19.080;2023-10-08T00:38:26;100281.97;;;18.78;41.92
53868;BME280;41577;47.470;19.080;2023-10-08T00:38:40;100274.91;;;18.77;41.89
53868;BME280;41577;47.470;19.080;2023-10-08T00:38:52;100277.63;;;18.77;41.97
53868;BME280;41577;47.470;19.080;2023-10-08T00:39:05;100279.47;;;18.76;42.21
53868;BME280;41577;47.470;19.080;2023-10-08T00:39:17;100273.88;;;18.78;42.29
53868;BME280;41577;47.470;19.080;2023-10-08T00:39:30;100275.75;;;18.77;41.94
53868;BME280;41577;47.470;19.080;2023-10-08T00:39:42;100276.56;;;18.78;41.91
53868;BME280;41577;47.470;19.080;2023-10-08T00:39:53;100274.06;;;18.76;41.89
53868;BME280;41577;47.470;19.080;2023-10-08T00:40:07;100276.56;;;18.78;42.02
53868;BME280;41577;47.470;19.080;2023-10-08T00:40:19;100283.03;;;18.77;42.24
53868;BME280;41577;47.470;19.080;2023-10-08T00:40:36;100277.63;;;18.77;42.03
53868;BME280;41577;47.470;19.080;2023-10-08T00:40:48;100279.47;;;18.76;42.24
53868;BME280;41577;47.470;19.080;2023-10-08T00:41:00;100273.25;;;18.76;42.09
53868;BME280;41577;47.470;19.080;2023-10-08T00:41:12;100275.16;;;18.75;42.38
53868;BME280;41577;47.470;19.080;2023-10-08T00:41:25;100273.25;;;18.76;41.98
53868;BME280;41577;47.470;19.080;2023-10-08T00:41:37;100271.63;;;18.75;42.22
53868;BME280;41577;47.470;19.080;2023-10-08T00:41:50;100267.25;;;18.74;41.99
53868;BME280;41577;47.470;19.080;2023-10-08T00:42:03;100275.97;;;18.76;42.03
53868;BME280;41577;47.470;19.080;2023-10-08T00:42:15;100273.25;;;18.76;42.44
53868;BME280;41577;47.470;19.080;2023-10-08T00:42:27;100268.91;;;18.75;41.95
53868;BME280;41577;47.470;19.080;2023-10-08T00:42:39;100271.03;;;18.73;42.24
53868;BME280;41577;47.470;19.080;2023-10-08T00:42:51;100267.84;;;18.76;42.10
53868;BME280;41577;47.470;19.080;2023-10-08T00:43:03;100280.56;;;18.75;42.29
53868;BME280;41577;47.470;19.080;2023-10-08T00:43:31;100270.78;;;18.74;42.21
53868;BME280;41577;47.470;19.080;2023-10-08T00:43:43;100272.22;;;18.77;42.17
53868;BME280;41577;47.470;19.080;2023-10-08T00:43:55;100268.91;;;18.75;42.23
53868;BME280;41577;47.470;19.080;2023-10-08T00:44:08;100273.50;;;18.74;42.13
53868;BME280;41577;47.470;19.080;2023-10-08T00:44:20;100270.53;;;18.76;42.32
53868;BME280;41577;47.470;19.080;2023-10-08T00:44:32;100270.78;;;18.74;42.41
53868;BME280;41577;47.470;19.080;2023-10-08T00:44:44;100274.06;;;18.76;42.03
53868;BME280;41577;47.470;19.080;2023-10-08T00:44:56;100273.50;;;18.74;41.96
53868;BME280;41577;47.470;19.080;2023-10-08T00:45:08;100274.34;;;18.75;42.16
53868;BME280;41577;47.470;19.080;2023-10-08T00:45:20;100269.16;;;18.73;42.08
53868;BME280;41577;47.470;19.080;2023-10-08T00:45:32;100263.75;;;18.73;42.18
53868;BME280;41577;47.470;19.080;2023-10-08T00:45:44;100269.16;;;18.73;42.14
53868;BME280;41577;47.470;19.080;2023-10-08T00:45:56;100264.78;;;18.72;42.31
53868;BME280;41577;47.470;19.080;2023-10-08T00:46:09;100263.75;;;18.73;42.27
53868;BME280;41577;47.470;19.080;2023-10-08T00:46:20;100260.69;;;18.70;42.26
53868;BME280;41577;47.470;19.080;2023-10-08T00:46:33;100268.56;;;18.71;42.38
53868;BME280;41577;47.470;19.080;2023-10-08T00:46:45;100265.88;;;18.71;42.09
53868;BME280;41577;47.470;19.080;2023-10-08T00:46:57;100264.78;;;18.72;42.35
53868;BME280;41577;47.470;19.080;2023-10-08T00:47:10;100268.56;;;18.71;42.29
53868;BME280;41577;47.470;19.080;2023-10-08T00:47:23;100265.63;;;18.73;42.55
53868;BME280;41577;47.470;19.080;2023-10-08T00:47:35;100266.69;;;18.72;42.21
53868;BME280;41577;47.470;19.080;2023-10-08T00:47:47;100265.06;;;18.71;42.49
53868;BME280;41577;47.470;19.080;2023-10-08T00:47:59;100271.28;;;18.71;42.62
53868;BME280;41577;47.470;19.080;2023-10-08T00:48:12;100263.16;;;18.71;42.67
53868;BME280;41577;47.470;19.080;2023-10-08T00:48:25;100265.06;;;18.71;42.41
53868;BME280;41577;47.470;19.080;2023-10-08T00:48:38;100265.63;;;18.73;42.61
53868;BME280;41577;47.470;19.080;2023-10-08T00:48:51;100259.88;;;18.69;42.93
53868;BME280;41577;47.470;19.080;2023-10-08T00:49:04;100261.53;;;18.70;42.62
53868;BME280;41577;47.470;19.080;2023-10-08T00:49:21;100263.41;;;18.70;42.62
53868;BME280;41577;47.470;19.080;2023-10-08T00:49:34;100267.75;;;18.71;42.99
53868;BME280;41577;47.470;19.080;2023-10-08T00:49:46;100252.50;;;18.65;43.20
53868;BME280;41577;47.470;19.080;2023-10-08T00:49:58;100266.09;;;18.70;43.38
53868;BME280;41577;47.470;19.080;2023-10-08T00:50:10;100258.25;;;18.68;43.22
53868;BME280;41577;47.470;19.080;2023-10-08T00:50:22;100255.53;;;18.68;43.53
53868;BME280;41577;47.470;19.080;2023-10-08T00:50:34;100258.25;;;18.68;43.48
53868;BME280;41577;47.470;19.080;2023-10-08T00:50:46;100251.69;;;18.64;43.58
53868;BME280;41577;47.470;19.080;2023-10-08T00:50:59;100260.09;;;18.68;43.91
53868;BME280;41577;47.470;19.080;2023-10-08T00:51:11;100258.47;;;18.67;43.93
53868;BME280;41577;47.470;19.080;2023-10-08T00:51:23;100253.31;;;18.65;43.93
53868;BME280;41577;47.470;19.080;2023-10-08T00:51:37;100257.09;;;18.64;43.68
53868;BME280;41577;47.470;19.080;2023-10-08T00:51:50;100255.44;;;18.63;43.78
53868;BME280;41577;47.470;19.080;2023-10-08T00:52:03;100254.03;;;18.60;43.87
53868;BME280;41577;47.470;19.080;2023-10-08T00:52:15;100258.97;;;18.64;43.85
53868;BME280;41577;47.470;19.080;2023-10-08T00:52:27;100254.03;;;18.60;44.17
53868;BME280;41577;47.470;19.080;2023-10-08T00:52:39;100255.09;;;18.59;44.33
53868;BME280;41577;47.470;19.080;2023-10-08T00:52:51;100259.72;;;18.59;44.38
53868;BME280;41577;47.470;19.080;2023-10-08T00:53:03;100258.84;;;18.58;44.30
53868;BME280;41577;47.470;19.080;2023-10-08T00:53:15;100257.22;;;18.57;44.43
53868;BME280;41577;47.470;19.080;2023-10-08T00:53:27;100252.88;;;18.56;44.31
53868;BME280;41577;47.470;19.080;2023-10-08T00:53:39;100253.72;;;18.57;44.30
53868;BME280;41577;47.470;19.080;2023-10-08T00:53:54;100251.25;;;18.55;44.54
53868;BME280;41577;47.470;19.080;2023-10-08T00:54:07;100252.56;;;18.53;44.52
53868;BME280;41577;47.470;19.080;2023-10-08T00:54:20;100256.06;;;18.53;44.90
53868;BME280;41577;47.470;19.080;2023-10-08T00:54:32;100252.78;;;18.51;44.73
53868;BME280;41577;47.470;19.080;2023-10-08T00:54:45;100257.97;;;18.53;44.80
53868;BME280;41577;47.470;19.080;2023-10-08T00:54:57;100254.66;;;18.51;44.89
53868;BME280;41577;47.470;19.080;2023-10-08T00:55:10;100252.19;;;18.49;45.11
53868;BME280;41577;47.470;19.080;2023-10-08T00:55:22;100261.16;;;18.50;45.12
53868;BME280;41577;47.470;19.080;2023-10-08T00:55:35;100261.38;;;18.48;45.11
53868;BME280;41577;47.470;19.080;2023-10-08T00:55:48;100257.03;;;18.47;45.08
53868;BME280;41577;47.470;19.080;2023-10-08T00:56:00;100258.34;;;18.45;45.18
53868;BME280;41577;47.470;19.080;2023-10-08T00:56:12;100254.59;;;18.46;45.10
53868;BME280;41577;47.470;19.080;2023-10-08T00:56:26;100252.13;;;18.44;45.06
53868;BME280;41577;47.470;19.080;2023-10-08T00:56:38;100254.81;;;18.44;45.14
53868;BME280;41577;47.470;19.080;2023-10-08T00:56:51;100255.03;;;18.43;45.42
53868;BME280;41577;47.470;19.080;2023-10-08T00:57:03;100261.75;;;18.40;45.32
53868;BME280;41577;47.470;19.080;2023-10-08T00:57:17;100258.81;;;18.42;45.48
53868;BME280;41577;47.470;19.080;2023-10-08T00:57:30;100252.25;;;18.37;45.50
53868;BME280;41577;47.470;19.080;2023-10-08T00:57:42;100260.13;;;18.39;45.54
53868;BME280;41577;47.470;19.080;2023-10-08T00:57:57;100257.66;;;18.37;45.57
53868;BME280;41577;47.470;19.080;2023-10-08T00:58:09;100255.22;;;18.36;45.76
53868;BME280;41577;47.470;19.080;2023-10-08T00:58:21;100249.22;;;18.34;45.89
53868;BME280;41577;47.470;19.080;2023-10-08T00:58:34;100249.47;;;18.32;45.85
53868;BME280;41577;47.470;19.080;2023-10-08T00:58:46;100251.34;;;18.32;45.50
53868;BME280;41577;47.470;19.080;2023-10-08T00:58:58;100252.16;;;18.32;45.76
53868;BME280;41577;47.470;19.080;2023-10-08T00:59:10;100257.81;;;18.31;46.06
53868;BME280;41577;47.470;19.080;2023-10-08T00:59:22;100248.06;;;18.30;46.06
53868;BME280;41577;47.470;19.080;2023-10-08T00:59:35;100250.75;;;18.30;45.88
53868;BME280;41577;47.470;19.080;2023-10-08T00:59:47;100248.28;;;18.28;45.87
53868;BME280;41577;47.470;19.080;2023-10-08T00:59:59;100252.06;;;18.27;45.60
53868;BME280;41577;47.470;19.080;2023-10-08T01:00:12;100246.66;;;18.27;45.64
53868;BME280;41577;47.470;19.080;2023-10-08T01:00:24;100246.91;;;18.26;45.71
53868;BME280;41577;47.470;19.080;2023-10-08T01:00:36;100246.91;;;18.26;45.88
53868;BME280;41577;47.470;19.080;2023-10-08T01:00:48;100245.25;;;18.25;45.87
53868;BME280;41577;47.470;19.080;2023-10-08T01:01:02;100250.66;;;18.25;45.86
53868;BME280;41577;47.470;19.080;2023-10-08T01:01:14;100249.00;;;18.24;46.01
53868;BME280;41577;47.470;19.080;2023-10-08T01:01:26;100247.13;;;18.24;45.92
53868;BME280;41577;47.470;19.080;2023-10-08T01:01:38;100247.38;;;18.23;45.57
53868;BME280;41577;47.470;19.080;2023-10-08T01:01:52;100245.72;;;18.22;46.00
53868;BME280;41577;47.470;19.080;2023-10-08T01:02:04;100241.41;;;18.21;46.05
53868;BME280;41577;47.470;19.080;2023-10-08T01:02:16;100246.00;;;18.20;46.23
53868;BME280;41577;47.470;19.080;2023-10-08T01:02:29;100246.81;;;18.21;45.89
53868;BME280;41577;47.470;19.080;2023-10-08T01:02:42;100245.13;;;18.19;45.96
53868;BME280;41577;47.470;19.080;2023-10-08T01:02:54;100253.25;;;18.19;46.20
53868;BME280;41577;47.470;19.080;2023-10-08T01:03:07;100250.81;;;18.18;45.92
53868;BME280;41577;47.470;19.080;2023-10-08T01:03:19;100242.69;;;18.18;46.08
53868;BME280;41577;47.470;19.080;2023-10-08T01:03:31;100239.41;;;18.16;46.05
53868;BME280;41577;47.470;19.080;2023-10-08T01:03:43;100247.03;;;18.19;46.24
53868;BME280;41577;47.470;19.080;2023-10-08T01:03:55;100249.16;;;18.17;46.20
53868;BME280;41577;47.470;19.080;2023-10-08T01:04:07;100242.13;;;18.16;46.06
53868;BME280;41577;47.470;19.080;2023-10-08T01:04:22;100242.13;;;18.16;46.24
53868;BME280;41577;47.470;19.080;2023-10-08T01:04:34;100236.13;;;18.14;46.20
53868;BME280;41577;47.470;19.080;2023-10-08T01:04:46;100240.47;;;18.15;46.33